createdAt,value
2022-09-23T00:00:12.631Z,9.84
2022-09-23T00:00:44.890Z,9.89
2022-09-23T00:01:16.599Z,9.87
2022-09-23T00:01:48.190Z,9.86
2022-09-23T00:02:20.809Z,9.86
2022-09-23T00:02:52.516Z,9.83
2022-09-23T00:03:23.883Z,9.85
2022-09-23T00:03:56.298Z,9.84
2022-09-23T00:04:27.797Z,9.85
2022-09-23T00:04:59.138Z,9.84
2022-09-23T00:05:33.487Z,9.83
2022-09-23T00:06:07.609Z,9.84
2022-09-23T00:06:39.764Z,9.84
2022-09-23T00:07:11.125Z,9.82
2022-09-23T00:07:42.444Z,9.83
2022-09-23T00:08:13.796Z,9.81
2022-09-23T00:08:45.252Z,9.82
2022-09-23T00:09:16.582Z,9.81
2022-09-23T00:09:47.899Z,9.78
2022-09-23T00:10:19.248Z,9.80
2022-09-23T00:10:50.907Z,9.78
2022-09-23T00:11:25.199Z,9.80
2022-09-23T00:11:56.583Z,9.74
2022-09-23T00:12:28.118Z,9.76
2022-09-23T00:12:59.644Z,9.74
2022-09-23T00:13:30.995Z,9.77
2022-09-23T00:14:02.438Z,9.73
2022-09-23T00:14:33.821Z,9.74
2022-09-23T00:15:05.662Z,9.73
2022-09-23T00:15:40.109Z,9.74
2022-09-23T00:16:14.856Z,9.74
2022-09-23T00:16:46.256Z,9.74
2022-09-23T00:17:17.818Z,9.72
2022-09-23T00:17:49.174Z,9.69
2022-09-23T00:18:21.010Z,9.71
2022-09-23T00:18:52.488Z,9.70
2022-09-23T00:19:23.825Z,9.67
2022-09-23T00:19:55.344Z,9.64
2022-09-23T00:20:26.735Z,9.69
2022-09-23T00:20:58.140Z,9.64
2022-09-23T00:21:29.883Z,9.69
2022-09-23T00:22:01.234Z,9.68
2022-09-23T00:22:33.593Z,9.68
2022-09-23T00:23:04.957Z,9.66
2022-09-23T00:23:36.686Z,9.67
2022-09-23T00:24:08.531Z,9.69
2022-09-23T00:24:40.163Z,9.64
2022-09-23T00:25:12.017Z,9.70
2022-09-23T00:25:43.450Z,9.66
2022-09-23T00:26:16.848Z,9.64
2022-09-23T00:26:48.246Z,9.65
2022-09-23T00:27:21.425Z,9.66
2022-09-23T00:27:53.837Z,9.68
2022-09-23T00:28:25.202Z,9.66
2022-09-23T00:28:56.615Z,9.67
2022-09-23T00:29:27.951Z,9.65
2022-09-23T00:29:59.882Z,9.66
2022-09-23T00:30:32.280Z,9.68
2022-09-23T00:31:10.034Z,9.67
2022-09-23T00:31:41.955Z,9.64
2022-09-23T00:32:13.801Z,9.63
2022-09-23T00:32:45.158Z,9.63
2022-09-23T00:33:16.567Z,9.62
2022-09-23T00:33:52.935Z,9.60
2022-09-23T00:34:24.428Z,9.62
2022-09-23T00:34:56.010Z,9.64
2022-09-23T00:35:27.582Z,9.62
2022-09-23T00:36:03.883Z,9.65
2022-09-23T00:36:35.288Z,9.61
2022-09-23T00:37:06.666Z,9.63
2022-09-23T00:37:38.270Z,9.61
2022-09-23T00:38:09.853Z,9.58
2022-09-23T00:38:41.964Z,9.64
2022-09-23T00:39:13.907Z,9.63
2022-09-23T00:39:46.224Z,9.60
2022-09-23T00:40:17.791Z,9.62
2022-09-23T00:40:49.789Z,9.61
2022-09-23T00:41:21.699Z,9.61
2022-09-23T00:41:54.135Z,9.61
2022-09-23T00:42:25.572Z,9.58
2022-09-23T00:42:56.999Z,9.58
2022-09-23T00:43:49.026Z,9.60
2022-09-23T00:44:41.765Z,9.59
2022-09-23T00:45:13.360Z,9.56
2022-09-23T00:45:51.176Z,9.56
2022-09-23T00:46:28.563Z,9.55
2022-09-23T00:47:00.177Z,9.54
2022-09-23T00:47:38.897Z,9.52
2022-09-23T00:48:17.542Z,9.52
2022-09-23T00:48:55.527Z,9.51
2022-09-23T00:49:30.486Z,9.51
2022-09-23T00:50:21.104Z,9.50
2022-09-23T00:50:54.741Z,9.47
2022-09-23T00:51:32.679Z,9.47
2022-09-23T00:52:12.703Z,9.44
2022-09-23T00:52:44.808Z,9.47
2022-09-23T00:53:21.312Z,9.48
2022-09-23T00:53:52.952Z,9.46
2022-09-23T00:54:27.599Z,9.43
2022-09-23T00:55:02.586Z,9.43
2022-09-23T00:55:43.042Z,9.44
2022-09-23T00:56:15.257Z,9.44
2022-09-23T00:56:46.624Z,9.42
2022-09-23T00:57:20.125Z,9.39
2022-09-23T00:57:55.648Z,9.42
2022-09-23T00:58:31.700Z,9.41
2022-09-23T00:59:03.464Z,9.38
2022-09-23T00:59:36.054Z,9.39
2022-09-23T01:00:08.473Z,9.44
2022-09-23T01:00:39.849Z,9.41
2022-09-23T01:01:14.334Z,9.43
2022-09-23T01:01:46.366Z,9.40
2022-09-23T01:02:21.028Z,9.42
2022-09-23T01:02:52.706Z,9.44
2022-09-23T01:03:24.157Z,9.40
2022-09-23T01:03:56.926Z,9.41
2022-09-23T01:04:29.750Z,9.42
2022-09-23T01:05:03.499Z,9.43
2022-09-23T01:05:36.564Z,9.38
2022-09-23T01:06:08.842Z,9.42
2022-09-23T01:06:40.868Z,9.39
2022-09-23T01:07:13.617Z,9.41
2022-09-23T01:07:46.111Z,9.41
2022-09-23T01:08:19.074Z,9.34
2022-09-23T01:08:51.431Z,9.34
2022-09-23T01:09:24.216Z,9.38
2022-09-23T01:09:57.480Z,9.38
2022-09-23T01:10:42.331Z,9.33
2022-09-23T01:11:31.768Z,9.38
2022-09-23T01:12:41.105Z,9.35
2022-09-23T01:13:26.618Z,9.34
2022-09-23T01:14:07.629Z,9.33
2022-09-23T01:15:05.596Z,9.32
2022-09-23T01:15:49.793Z,9.29
2022-09-23T01:16:39.681Z,9.29
2022-09-23T01:17:24.408Z,9.28
2022-09-23T01:18:08.220Z,9.26
2022-09-23T01:18:49.255Z,9.27
2022-09-23T01:19:38.190Z,9.23
2022-09-23T01:20:37.306Z,9.24
2022-09-23T01:21:23.800Z,9.22
2022-09-23T01:22:09.120Z,9.21
2022-09-23T01:23:02.096Z,9.19
2022-09-23T01:23:36.131Z,9.19
2022-09-23T01:24:19.563Z,9.18
2022-09-23T01:25:15.663Z,9.16
2022-09-23T01:26:05.627Z,9.15
2022-09-23T01:27:04.549Z,9.14
2022-09-23T01:28:07.694Z,9.13
2022-09-23T01:29:36.021Z,9.12
2022-09-23T01:30:16.753Z,9.10
2022-09-23T01:31:04.814Z,9.08
2022-09-23T01:31:58.635Z,9.08
2022-09-23T01:32:32.549Z,9.07
2022-09-23T01:33:20.002Z,9.07
2022-09-23T01:34:09.607Z,9.06
2022-09-23T01:35:09.946Z,9.04
2022-09-23T01:36:29.100Z,9.03
2022-09-23T01:37:32.697Z,9.01
2022-09-23T01:38:29.219Z,9.00
2022-09-23T01:39:10.669Z,8.99
2022-09-23T01:39:51.132Z,8.99
2022-09-23T01:40:26.215Z,8.99
2022-09-23T01:41:20.242Z,8.98
2022-09-23T01:42:03.023Z,8.97
2022-09-23T01:42:54.284Z,8.96
2022-09-23T01:43:38.587Z,8.95
2022-09-23T01:44:18.228Z,8.95
2022-09-23T01:44:54.941Z,8.93
2022-09-23T01:45:36.013Z,8.89
2022-09-23T01:46:19.518Z,8.88
2022-09-23T01:46:58.797Z,8.91
2022-09-23T01:47:35.668Z,8.90
2022-09-23T01:48:18.242Z,8.91
2022-09-23T01:48:56.531Z,8.90
2022-09-23T01:49:39.630Z,8.91
2022-09-23T01:50:42.781Z,8.90
2022-09-23T01:51:23.852Z,8.91
2022-09-23T01:52:11.441Z,8.90
2022-09-23T01:52:47.229Z,8.88
2022-09-23T01:53:39.160Z,8.89
2022-09-23T01:54:26.004Z,8.86
2022-09-23T01:55:13.967Z,8.85
2022-09-23T01:55:50.644Z,8.84
2022-09-23T01:56:35.432Z,8.85
2022-09-23T01:57:16.191Z,8.85
2022-09-23T01:57:56.499Z,8.84
2022-09-23T01:59:01.618Z,8.83
2022-09-23T01:59:38.231Z,8.83
2022-09-23T02:00:14.122Z,8.83
2022-09-23T02:01:07.301Z,8.82
2022-09-23T02:01:52.088Z,8.83
2022-09-23T02:02:32.165Z,8.84
2022-09-23T02:03:17.030Z,8.83
2022-09-23T02:03:55.781Z,8.82
2022-09-23T02:04:33.461Z,8.82
2022-09-23T02:05:14.800Z,8.81
2022-09-23T02:05:57.050Z,8.81
2022-09-23T02:06:35.337Z,8.80
2022-09-23T02:07:15.088Z,8.77
2022-09-23T02:08:00.460Z,8.81
2022-09-23T02:08:37.989Z,8.79
2022-09-23T02:09:16.588Z,8.79
2022-09-23T02:09:56.124Z,8.80
2022-09-23T02:10:35.951Z,8.79
2022-09-23T02:11:10.496Z,8.80
2022-09-23T02:11:46.032Z,8.80
2022-09-23T02:12:21.120Z,8.79
2022-09-23T02:12:58.049Z,8.81
2022-09-23T02:13:41.979Z,8.81
2022-09-23T02:14:19.026Z,8.80
2022-09-23T02:14:57.254Z,8.80
2022-09-23T02:15:44.813Z,8.79
2022-09-23T02:16:26.473Z,8.80
2022-09-23T02:17:03.431Z,8.77
2022-09-23T02:17:43.904Z,8.77
2022-09-23T02:18:21.866Z,8.77
2022-09-23T02:19:00.399Z,8.79
2022-09-23T02:19:52.596Z,8.79
2022-09-23T02:20:30.594Z,8.78
2022-09-23T02:21:07.092Z,8.79
2022-09-23T02:21:43.112Z,8.79
2022-09-23T02:22:26.446Z,8.79
2022-09-23T02:23:19.374Z,8.77
2022-09-23T02:24:17.660Z,8.76
2022-09-23T02:24:49.450Z,8.74
2022-09-23T02:25:26.497Z,8.74
2022-09-23T02:26:35.248Z,8.72
2022-09-23T02:27:32.353Z,8.71
2022-09-23T02:28:17.283Z,8.70
2022-09-23T02:29:01.162Z,8.71
2022-09-23T02:29:48.848Z,8.68
2022-09-23T02:30:27.072Z,8.69
2022-09-23T02:31:08.722Z,8.69
2022-09-23T02:32:12.564Z,8.69
2022-09-23T02:32:43.913Z,8.69
2022-09-23T02:33:25.387Z,8.68
2022-09-23T02:34:12.757Z,8.68
2022-09-23T02:34:52.808Z,8.68
2022-09-23T02:35:33.426Z,8.67
2022-09-23T02:36:17.908Z,8.67
2022-09-23T02:37:06.661Z,8.65
2022-09-23T02:38:04.051Z,8.66
2022-09-23T02:38:44.543Z,8.65
2022-09-23T02:39:19.562Z,8.63
2022-09-23T02:39:50.901Z,8.66
2022-09-23T02:40:38.499Z,8.64
2022-09-23T02:41:20.372Z,8.65
2022-09-23T02:42:02.424Z,8.63
2022-09-23T02:42:45.765Z,8.62
2022-09-23T02:43:35.363Z,8.61
2022-09-23T02:44:10.238Z,8.59
2022-09-23T02:44:41.849Z,8.58
2022-09-23T02:45:13.446Z,8.55
2022-09-23T02:45:45.200Z,8.56
2022-09-23T02:46:17.705Z,8.54
2022-09-23T02:46:53.057Z,8.55
2022-09-23T02:47:31.242Z,8.54
2022-09-23T02:48:07.697Z,8.55
2022-09-23T02:49:21.411Z,8.55
2022-09-23T02:49:53.480Z,8.56
2022-09-23T02:50:25.209Z,8.54
2022-09-23T02:50:57.841Z,8.53
2022-09-23T02:51:29.367Z,8.54
2022-09-23T02:52:04.720Z,8.54
2022-09-23T02:52:39.194Z,8.53
2022-09-23T02:53:10.682Z,8.52
2022-09-23T02:53:43.020Z,8.51
2022-09-23T02:54:18.497Z,8.51
2022-09-23T02:54:49.982Z,8.48
2022-09-23T02:55:25.177Z,8.50
2022-09-23T02:55:56.729Z,8.51
2022-09-23T02:56:28.650Z,8.47
2022-09-23T02:57:02.708Z,8.47
2022-09-23T02:57:34.827Z,8.46
2022-09-23T02:58:06.267Z,8.49
2022-09-23T02:58:37.607Z,8.46
2022-09-23T02:59:09.982Z,8.48
2022-09-23T02:59:41.710Z,8.47
2022-09-23T03:00:13.810Z,8.50
2022-09-23T03:01:06.342Z,8.50
2022-09-23T03:02:13.928Z,8.48
2022-09-23T03:03:20.351Z,8.45
2022-09-23T03:04:18.951Z,8.46
2022-09-23T03:05:03.819Z,8.44
2022-09-23T03:05:42.453Z,8.42
2022-09-23T03:06:39.732Z,8.42
2022-09-23T03:07:19.476Z,8.40
2022-09-23T03:08:16.588Z,8.40
2022-09-23T03:08:57.520Z,8.39
2022-09-23T03:09:33.226Z,8.38
2022-09-23T03:10:15.377Z,8.35
2022-09-23T03:11:08.245Z,8.34
2022-09-23T03:11:44.755Z,8.35
2022-09-23T03:12:47.810Z,8.34
2022-09-23T03:13:29.381Z,8.32
2022-09-23T03:14:04.984Z,8.32
2022-09-23T03:14:44.258Z,8.29
2022-09-23T03:15:18.956Z,8.31
2022-09-23T03:16:02.607Z,8.31
2022-09-23T03:16:47.967Z,8.31
2022-09-23T03:17:34.853Z,8.30
2022-09-23T03:18:47.344Z,8.31
2022-09-23T03:19:36.541Z,8.28
2022-09-23T03:20:13.956Z,8.28
2022-09-23T03:20:50.447Z,8.27
2022-09-23T03:22:02.999Z,8.28
2022-09-23T03:22:40.563Z,8.26
2022-09-23T03:23:15.145Z,8.26
2022-09-23T03:23:48.219Z,8.25
2022-09-23T03:24:21.995Z,8.24
2022-09-23T03:24:59.831Z,8.20
2022-09-23T03:25:35.746Z,8.23
2022-09-23T03:26:12.607Z,8.22
2022-09-23T03:26:47.146Z,8.19
2022-09-23T03:27:23.894Z,8.21
2022-09-23T03:27:58.817Z,8.20
2022-09-23T03:28:31.155Z,8.21
2022-09-23T03:29:05.153Z,8.25
2022-09-23T03:29:37.032Z,8.20
2022-09-23T03:30:09.485Z,8.25
2022-09-23T03:30:43.490Z,8.26
2022-09-23T03:31:15.285Z,8.20
2022-09-23T03:31:47.368Z,8.26
2022-09-23T03:32:23.343Z,8.25
2022-09-23T03:32:57.018Z,8.26
2022-09-23T03:33:29.065Z,8.21
2022-09-23T03:34:03.293Z,8.25
2022-09-23T03:34:37.485Z,8.22
2022-09-23T03:35:09.130Z,8.24
2022-09-23T03:36:12.952Z,8.25
2022-09-23T03:37:00.681Z,8.23
2022-09-23T03:38:11.150Z,8.23
2022-09-23T03:38:50.057Z,8.22
2022-09-23T03:39:31.608Z,8.21
2022-09-23T03:40:20.526Z,8.20
2022-09-23T03:40:55.542Z,8.21
2022-09-23T03:41:32.868Z,8.21
2022-09-23T03:42:12.491Z,8.20
2022-09-23T03:42:43.822Z,8.18
2022-09-23T03:43:15.984Z,8.19
2022-09-23T03:43:47.725Z,8.20
2022-09-23T03:44:20.864Z,8.21
2022-09-23T03:44:54.374Z,8.22
2022-09-23T03:45:31.823Z,8.20
2022-09-23T03:46:03.301Z,8.22
2022-09-23T03:46:36.008Z,8.21
2022-09-23T03:47:07.597Z,8.22
2022-09-23T03:47:39.326Z,8.22
2022-09-23T03:48:10.892Z,8.20
2022-09-23T03:48:42.418Z,8.22
2022-09-23T03:49:24.235Z,8.23
2022-09-23T03:49:56.910Z,8.21
2022-09-23T03:50:28.952Z,8.23
2022-09-23T03:51:17.751Z,8.23
2022-09-23T03:51:49.105Z,8.23
2022-09-23T03:52:22.968Z,8.23
2022-09-23T03:52:54.324Z,8.23
2022-09-23T03:53:25.767Z,8.21
2022-09-23T03:53:57.438Z,8.24
2022-09-23T03:54:29.917Z,8.22
2022-09-23T03:55:01.385Z,8.20
2022-09-23T03:55:34.713Z,8.23
2022-09-23T03:56:06.048Z,8.20
2022-09-23T03:56:37.731Z,8.19
2022-09-23T03:57:11.524Z,8.22
2022-09-23T03:57:43.255Z,8.20
2022-09-23T03:58:14.619Z,8.23
2022-09-23T03:58:46.471Z,8.23
2022-09-23T03:59:17.840Z,8.25
2022-09-23T03:59:53.048Z,8.25
2022-09-23T04:00:24.362Z,8.26
2022-09-23T04:00:57.665Z,8.24
2022-09-23T04:01:29.642Z,8.25
2022-09-23T04:02:01.765Z,8.23
2022-09-23T04:02:33.797Z,8.26
2022-09-23T04:03:10.934Z,8.27
2022-09-23T04:03:43.378Z,8.26
2022-09-23T04:04:14.920Z,8.26
2022-09-23T04:04:46.362Z,8.27
2022-09-23T04:05:18.166Z,8.28
2022-09-23T04:05:49.588Z,8.27
2022-09-23T04:06:21.195Z,8.27
2022-09-23T04:06:52.544Z,8.25
2022-09-23T04:07:23.955Z,8.23
2022-09-23T04:07:55.488Z,8.27
2022-09-23T04:08:27.266Z,8.26
2022-09-23T04:08:58.884Z,8.25
2022-09-23T04:09:30.601Z,8.28
2022-09-23T04:10:02.027Z,8.28
2022-09-23T04:10:33.387Z,8.28
2022-09-23T04:11:05.055Z,8.26
2022-09-23T04:11:37.377Z,8.28
2022-09-23T04:12:13.098Z,8.29
2022-09-23T04:12:44.530Z,8.27
2022-09-23T04:13:16.210Z,8.25
2022-09-23T04:13:47.582Z,8.27
2022-09-23T04:14:20.585Z,8.29
2022-09-23T04:14:51.961Z,8.24
2022-09-23T04:15:24.880Z,8.26
2022-09-23T04:15:56.525Z,8.26
2022-09-23T04:16:28.005Z,8.28
2022-09-23T04:16:59.453Z,8.29
2022-09-23T04:17:30.780Z,8.29
2022-09-23T04:18:02.103Z,8.28
2022-09-23T04:18:33.481Z,8.30
2022-09-23T04:19:05.171Z,8.24
2022-09-23T04:19:37.156Z,8.29
2022-09-23T04:20:09.176Z,8.24
2022-09-23T04:20:40.697Z,8.29
2022-09-23T04:21:12.089Z,8.29
2022-09-23T04:21:44.430Z,8.25
2022-09-23T04:22:15.765Z,8.28
2022-09-23T04:22:47.137Z,8.29
2022-09-23T04:23:18.455Z,8.30
2022-09-23T04:23:50.094Z,8.25
2022-09-23T04:24:22.166Z,8.29
2022-09-23T04:24:53.717Z,8.27
2022-09-23T04:25:25.054Z,8.28
2022-09-23T04:25:56.464Z,8.31
2022-09-23T04:26:27.814Z,8.27
2022-09-23T04:26:59.747Z,8.30
2022-09-23T04:27:35.476Z,8.29
2022-09-23T04:28:08.934Z,8.27
2022-09-23T04:28:40.680Z,8.31
2022-09-23T04:29:12.070Z,8.29
2022-09-23T04:29:43.410Z,8.29
2022-09-23T04:30:14.906Z,8.31
2022-09-23T04:30:47.223Z,8.28
2022-09-23T04:31:18.632Z,8.28
2022-09-23T04:31:51.129Z,8.30
2022-09-23T04:32:22.613Z,8.31
2022-09-23T04:32:54.175Z,8.29
2022-09-23T04:33:25.718Z,8.29
2022-09-23T04:33:57.289Z,8.30
2022-09-23T04:34:28.627Z,8.31
2022-09-23T04:35:00.200Z,8.31
2022-09-23T04:35:31.554Z,8.33
2022-09-23T04:36:02.880Z,8.31
2022-09-23T04:36:34.808Z,8.30
2022-09-23T04:37:06.143Z,8.31
2022-09-23T04:37:37.470Z,8.28
2022-09-23T04:38:12.067Z,8.31
2022-09-23T04:38:45.052Z,8.32
2022-09-23T04:39:17.129Z,8.32
2022-09-23T04:39:48.497Z,8.30
2022-09-23T04:40:19.890Z,8.31
2022-09-23T04:40:51.423Z,8.29
2022-09-23T04:41:23.124Z,8.30
2022-09-23T04:41:54.539Z,8.29
2022-09-23T04:42:29.367Z,8.34
2022-09-23T04:43:00.725Z,8.30
2022-09-23T04:43:32.091Z,8.33
2022-09-23T04:44:04.209Z,8.34
2022-09-23T04:44:35.679Z,8.34
2022-09-23T04:45:07.648Z,8.34
2022-09-23T04:45:39.422Z,8.35
2022-09-23T04:46:13.542Z,8.32
2022-09-23T04:46:48.221Z,8.34
2022-09-23T04:47:19.739Z,8.36
2022-09-23T04:47:51.400Z,8.36
2022-09-23T04:48:22.721Z,8.37
2022-09-23T04:48:54.237Z,8.35
2022-09-23T04:49:26.166Z,8.39
2022-09-23T04:49:59.867Z,8.38
2022-09-23T04:50:33.675Z,8.38
2022-09-23T04:51:07.285Z,8.38
2022-09-23T04:51:43.220Z,8.39
2022-09-23T04:52:14.547Z,8.37
2022-09-23T04:52:46.063Z,8.39
2022-09-23T04:53:18.988Z,8.39
2022-09-23T04:53:51.995Z,8.35
2022-09-23T04:54:23.339Z,8.38
2022-09-23T04:54:54.655Z,8.37
2022-09-23T04:55:26.058Z,8.36
2022-09-23T04:56:05.692Z,8.42
2022-09-23T04:56:37.216Z,8.42
2022-09-23T04:57:11.009Z,8.43
2022-09-23T04:57:42.333Z,8.39
2022-09-23T04:58:13.677Z,8.41
2022-09-23T04:58:45.980Z,8.42
2022-09-23T04:59:17.316Z,8.40
2022-09-23T04:59:48.659Z,8.43
2022-09-23T05:00:20.062Z,8.43
2022-09-23T05:00:51.656Z,8.42
2022-09-23T05:01:27.150Z,8.42
2022-09-23T05:01:58.780Z,8.44
2022-09-23T05:02:30.882Z,8.46
2022-09-23T05:03:02.325Z,8.44
2022-09-23T05:03:35.655Z,8.46
2022-09-23T05:04:13.437Z,8.44
2022-09-23T05:04:45.002Z,8.43
2022-09-23T05:05:23.235Z,8.45
2022-09-23T05:05:59.847Z,8.43
2022-09-23T05:06:36.878Z,8.43
2022-09-23T05:07:08.233Z,8.46
2022-09-23T05:07:40.336Z,8.47
2022-09-23T05:08:11.974Z,8.47
2022-09-23T05:08:57.365Z,8.49
2022-09-23T05:09:28.718Z,8.49
2022-09-23T05:10:00.048Z,8.47
2022-09-23T05:10:31.391Z,8.50
2022-09-23T05:11:07.467Z,8.51
2022-09-23T05:11:38.794Z,8.48
2022-09-23T05:12:10.221Z,8.49
2022-09-23T05:12:41.586Z,8.51
2022-09-23T05:13:12.937Z,8.50
2022-09-23T05:13:47.565Z,8.50
2022-09-23T05:14:19.024Z,8.50
2022-09-23T05:14:50.799Z,8.49
2022-09-23T05:15:22.187Z,8.52
2022-09-23T05:16:06.571Z,8.53
2022-09-23T05:16:38.034Z,8.55
2022-09-23T05:17:09.364Z,8.53
2022-09-23T05:17:40.738Z,8.53
2022-09-23T05:18:12.075Z,8.53
2022-09-23T05:18:44.479Z,8.54
2022-09-23T05:19:15.838Z,8.53
2022-09-23T05:19:48.739Z,8.53
2022-09-23T05:20:20.641Z,8.55
2022-09-23T05:20:55.557Z,8.56
2022-09-23T05:21:30.158Z,8.54
2022-09-23T05:22:01.505Z,8.57
2022-09-23T05:22:32.872Z,8.57
2022-09-23T05:23:04.242Z,8.56
2022-09-23T05:23:36.022Z,8.58
2022-09-23T05:24:07.389Z,8.56
2022-09-23T05:24:38.735Z,8.59
2022-09-23T05:25:10.154Z,8.57
2022-09-23T05:25:42.411Z,8.56
2022-09-23T05:26:14.016Z,8.57
2022-09-23T05:26:45.645Z,8.61
2022-09-23T05:27:16.989Z,8.61
2022-09-23T05:27:48.297Z,8.60
2022-09-23T05:28:19.938Z,8.62
2022-09-23T05:28:51.948Z,8.59
2022-09-23T05:29:23.269Z,8.56
2022-09-23T05:29:55.009Z,8.59
2022-09-23T05:30:26.543Z,8.60
2022-09-23T05:31:06.139Z,8.62
2022-09-23T05:31:37.527Z,8.61
2022-09-23T05:32:09.869Z,8.62
2022-09-23T05:32:41.331Z,8.63
2022-09-23T05:33:13.113Z,8.62
2022-09-23T05:33:47.341Z,8.64
2022-09-23T05:34:18.651Z,8.63
2022-09-23T05:34:50.009Z,8.66
2022-09-23T05:35:21.525Z,8.63
2022-09-23T05:35:53.392Z,8.66
2022-09-23T05:36:26.093Z,8.68
2022-09-23T05:36:58.298Z,8.65
2022-09-23T05:37:29.668Z,8.62
2022-09-23T05:38:00.998Z,8.68
2022-09-23T05:38:33.045Z,8.69
2022-09-23T05:39:04.819Z,8.66
2022-09-23T05:39:36.630Z,8.70
2022-09-23T05:40:08.358Z,8.68
2022-09-23T05:40:39.949Z,8.69
2022-09-23T05:41:13.598Z,8.70
2022-09-23T05:41:45.721Z,8.71
2022-09-23T05:42:20.895Z,8.68
2022-09-23T05:42:52.487Z,8.72
2022-09-23T05:43:24.785Z,8.73
2022-09-23T05:43:56.794Z,8.73
2022-09-23T05:44:28.229Z,8.72
2022-09-23T05:44:59.627Z,8.73
2022-09-23T05:45:32.004Z,8.71
2022-09-23T05:46:08.185Z,8.70
2022-09-23T05:46:39.846Z,8.71
2022-09-23T05:47:11.238Z,8.73
2022-09-23T05:47:44.017Z,8.72
2022-09-23T05:48:15.345Z,8.74
2022-09-23T05:48:47.431Z,8.72
2022-09-23T05:49:18.768Z,8.74
2022-09-23T05:49:59.566Z,8.75
2022-09-23T05:50:31.632Z,8.76
2022-09-23T05:51:03.832Z,8.76
2022-09-23T05:51:35.829Z,8.77
2022-09-23T05:52:07.281Z,8.77
2022-09-23T05:52:38.952Z,8.77
2022-09-23T05:53:10.262Z,8.78
2022-09-23T05:53:44.779Z,8.79
2022-09-23T05:54:16.101Z,8.79
2022-09-23T05:54:47.463Z,8.78
2022-09-23T05:55:18.874Z,8.78
2022-09-23T05:55:50.270Z,8.76
2022-09-23T05:56:24.352Z,8.77
2022-09-23T05:56:55.730Z,8.78
2022-09-23T05:57:27.205Z,8.78
2022-09-23T05:57:58.634Z,8.79
2022-09-23T05:58:30.145Z,8.78
2022-09-23T05:59:02.353Z,8.82
2022-09-23T05:59:33.796Z,8.83
2022-09-23T06:00:05.863Z,8.82
2022-09-23T06:00:39.930Z,8.86
2022-09-23T06:01:14.102Z,8.85
2022-09-23T06:01:45.528Z,8.86
2022-09-23T06:02:17.369Z,8.84
2022-09-23T06:02:49.226Z,8.87
2022-09-23T06:03:20.968Z,8.86
2022-09-23T06:03:56.617Z,8.88
2022-09-23T06:04:27.952Z,8.88
2022-09-23T06:04:59.265Z,8.89
2022-09-23T06:05:31.131Z,8.89
2022-09-23T06:06:02.498Z,8.89
2022-09-23T06:06:36.725Z,8.91
2022-09-23T06:07:08.577Z,8.93
2022-09-23T06:07:39.911Z,8.92
2022-09-23T06:08:11.739Z,8.94
2022-09-23T06:08:43.469Z,8.93
2022-09-23T06:09:15.069Z,8.89
2022-09-23T06:09:46.494Z,8.88
2022-09-23T06:10:17.909Z,8.92
2022-09-23T06:10:53.540Z,8.96
2022-09-23T06:11:26.741Z,8.96
2022-09-23T06:11:58.067Z,8.92
2022-09-23T06:12:29.409Z,8.95
2022-09-23T06:13:00.758Z,8.91
2022-09-23T06:13:32.139Z,8.94
2022-09-23T06:14:04.182Z,8.97
2022-09-23T06:14:36.358Z,8.94
2022-09-23T06:15:08.109Z,8.99
2022-09-23T06:15:39.541Z,8.94
2022-09-23T06:16:14.085Z,9.00
2022-09-23T06:16:45.549Z,9.01
2022-09-23T06:17:16.887Z,8.99
2022-09-23T06:17:51.059Z,8.99
2022-09-23T06:18:22.577Z,9.01
2022-09-23T06:18:54.217Z,9.03
2022-09-23T06:19:25.549Z,9.00
2022-09-23T06:19:56.937Z,9.02
2022-09-23T06:20:28.525Z,9.05
2022-09-23T06:21:04.193Z,9.05
2022-09-23T06:21:38.399Z,9.06
2022-09-23T06:22:10.949Z,9.06
2022-09-23T06:22:42.330Z,9.06
2022-09-23T06:23:13.726Z,9.06
2022-09-23T06:23:46.084Z,9.07
2022-09-23T06:24:22.107Z,9.08
2022-09-23T06:24:55.202Z,9.09
2022-09-23T06:25:26.536Z,9.09
2022-09-23T06:26:02.086Z,9.12
2022-09-23T06:26:34.597Z,9.11
2022-09-23T06:27:06.563Z,9.10
2022-09-23T06:27:38.056Z,9.12
2022-09-23T06:28:10.859Z,9.12
2022-09-23T06:28:43.964Z,9.14
2022-09-23T06:29:15.320Z,9.12
2022-09-23T06:29:46.713Z,9.14
2022-09-23T06:30:18.085Z,9.16
2022-09-23T06:30:50.543Z,9.15
2022-09-23T06:31:21.902Z,9.18
2022-09-23T06:31:53.458Z,9.15
2022-09-23T06:32:25.115Z,9.18
2022-09-23T06:32:58.055Z,9.18
2022-09-23T06:33:36.455Z,9.20
2022-09-23T06:34:13.976Z,9.22
2022-09-23T06:34:51.557Z,9.20
2022-09-23T06:35:27.881Z,9.19
2022-09-23T06:36:00.852Z,9.19
2022-09-23T06:36:42.403Z,9.20
2022-09-23T06:37:19.949Z,9.23
2022-09-23T06:37:53.093Z,9.23
2022-09-23T06:38:25.840Z,9.22
2022-09-23T06:38:57.298Z,9.24
2022-09-23T06:39:30.006Z,9.21
2022-09-23T06:40:01.763Z,9.27
2022-09-23T06:40:33.230Z,9.28
2022-09-23T06:41:04.954Z,9.31
2022-09-23T06:41:36.381Z,9.25
2022-09-23T06:42:07.923Z,9.32
2022-09-23T06:42:39.598Z,9.29
2022-09-23T06:43:10.961Z,9.33
2022-09-23T06:43:42.410Z,9.34
2022-09-23T06:44:15.056Z,9.37
2022-09-23T06:44:46.551Z,9.35
2022-09-23T06:45:18.029Z,9.36
2022-09-23T06:45:53.632Z,9.36
2022-09-23T06:46:25.538Z,9.37
2022-09-23T06:46:57.071Z,9.39
2022-09-23T06:47:29.130Z,9.38
2022-09-23T06:48:00.963Z,9.40
2022-09-23T06:48:35.920Z,9.41
2022-09-23T06:49:07.452Z,9.44
2022-09-23T06:49:38.818Z,9.44
2022-09-23T06:50:12.970Z,9.44
2022-09-23T06:50:44.511Z,9.46
2022-09-23T06:51:19.412Z,9.47
2022-09-23T06:51:50.987Z,9.51
2022-09-23T06:52:22.314Z,9.49
2022-09-23T06:52:56.455Z,9.55
2022-09-23T06:53:34.934Z,9.57
2022-09-23T06:54:06.460Z,9.58
2022-09-23T06:54:37.977Z,9.55
2022-09-23T06:55:11.267Z,9.55
2022-09-23T06:55:43.094Z,9.59
2022-09-23T06:56:15.381Z,9.59
2022-09-23T06:56:47.409Z,9.64
2022-09-23T06:57:18.889Z,9.66
2022-09-23T06:57:50.981Z,9.67
2022-09-23T06:58:22.305Z,9.70
2022-09-23T06:58:54.625Z,9.72
2022-09-23T06:59:26.127Z,9.75
2022-09-23T06:59:59.057Z,9.74
2022-09-23T07:00:30.382Z,9.75
2022-09-23T07:01:07.280Z,9.78
2022-09-23T07:01:38.954Z,9.79
2022-09-23T07:02:11.346Z,9.80
2022-09-23T07:02:42.898Z,9.81
2022-09-23T07:03:14.305Z,9.83
2022-09-23T07:03:47.431Z,9.83
2022-09-23T07:04:18.878Z,9.83
2022-09-23T07:04:51.227Z,9.84
2022-09-23T07:05:22.938Z,9.83
2022-09-23T07:05:56.086Z,9.89
2022-09-23T07:06:27.435Z,9.87
2022-09-23T07:06:58.853Z,9.93
2022-09-23T07:07:31.420Z,9.91
2022-09-23T07:08:03.254Z,9.94
2022-09-23T07:08:35.345Z,9.93
2022-09-23T07:09:07.557Z,9.99
2022-09-23T07:09:38.960Z,9.96
2022-09-23T07:10:11.862Z,9.98
2022-09-23T07:10:43.260Z,9.99
2022-09-23T07:11:15.910Z,10.01
2022-09-23T07:11:47.448Z,10.03
2022-09-23T07:12:18.954Z,10.05
2022-09-23T07:12:50.338Z,10.07
2022-09-23T07:13:22.229Z,10.08
2022-09-23T07:13:53.782Z,10.09
2022-09-23T07:14:25.170Z,10.09
2022-09-23T07:14:57.338Z,10.12
2022-09-23T07:15:28.896Z,10.12
2022-09-23T07:16:02.048Z,10.16
2022-09-23T07:16:33.698Z,10.16
2022-09-23T07:17:05.247Z,10.18
2022-09-23T07:17:36.857Z,10.21
2022-09-23T07:18:08.244Z,10.24
2022-09-23T07:18:40.710Z,10.21
2022-09-23T07:19:12.933Z,10.22
2022-09-23T07:19:44.330Z,10.22
2022-09-23T07:20:17.863Z,10.27
2022-09-23T07:20:50.000Z,10.26
2022-09-23T07:21:21.494Z,10.26
2022-09-23T07:21:52.840Z,10.30
2022-09-23T07:22:26.365Z,10.32
2022-09-23T07:22:57.719Z,10.35
2022-09-23T07:23:29.073Z,10.33
2022-09-23T07:24:00.764Z,10.35
2022-09-23T07:24:33.640Z,10.35
2022-09-23T07:25:06.132Z,10.37
2022-09-23T07:25:37.610Z,10.38
2022-09-23T07:26:09.100Z,10.41
2022-09-23T07:26:45.466Z,10.43
2022-09-23T07:27:19.845Z,10.47
2022-09-23T07:27:51.258Z,10.48
2022-09-23T07:28:22.631Z,10.48
2022-09-23T07:28:58.099Z,10.52
2022-09-23T07:29:35.753Z,10.51
2022-09-23T07:30:25.744Z,10.52
2022-09-23T07:31:00.560Z,10.53
2022-09-23T07:31:39.111Z,10.59
2022-09-23T07:32:14.399Z,10.59
2022-09-23T07:32:48.957Z,10.62
2022-09-23T07:33:30.520Z,10.62
2022-09-23T07:34:03.500Z,10.64
2022-09-23T07:34:34.873Z,10.64
2022-09-23T07:35:07.086Z,10.65
2022-09-23T07:35:42.268Z,10.66
2022-09-23T07:36:19.505Z,10.67
2022-09-23T07:36:51.092Z,10.72
2022-09-23T07:37:22.694Z,10.74
2022-09-23T07:37:54.071Z,10.71
2022-09-23T07:38:29.833Z,10.76
2022-09-23T07:39:13.198Z,10.76
2022-09-23T07:39:45.278Z,10.79
2022-09-23T07:40:16.770Z,10.81
2022-09-23T07:40:49.065Z,10.82
2022-09-23T07:41:20.565Z,10.82
2022-09-23T07:41:51.977Z,10.86
2022-09-23T07:42:23.476Z,10.86
2022-09-23T07:42:56.629Z,10.87
2022-09-23T07:43:34.181Z,10.88
2022-09-23T07:44:06.143Z,10.89
2022-09-23T07:44:37.630Z,10.89
2022-09-23T07:45:09.216Z,10.92
2022-09-23T07:45:43.484Z,10.90
2022-09-23T07:46:17.604Z,10.92
2022-09-23T07:46:51.841Z,10.90
2022-09-23T07:47:23.652Z,10.93
2022-09-23T07:47:55.503Z,10.95
2022-09-23T07:48:30.664Z,10.98
2022-09-23T07:49:05.668Z,10.99
2022-09-23T07:49:37.284Z,11.02
2022-09-23T07:50:12.867Z,11.02
2022-09-23T07:50:44.465Z,11.02
2022-09-23T07:51:26.440Z,11.07